createdAt,value
2022-10-04T00:00:00.618Z,13.10
2022-10-04T00:02:34.011Z,14.27
2022-10-04T00:05:07.551Z,12.47
2022-10-04T00:07:38.516Z,11.03
2022-10-04T00:10:18.696Z,11.83
2022-10-04T00:12:49.621Z,10.53
2022-10-04T00:15:23.597Z,11.23
2022-10-04T00:18:08.282Z,12.23
2022-10-04T00:21:02.101Z,12.33
2022-10-04T00:23:42.309Z,10.03
2022-10-04T00:26:17.260Z,10.37
2022-10-04T00:28:46.925Z,14.90
2022-10-04T00:31:24.938Z,11.40
2022-10-04T00:33:56.161Z,12.93
2022-10-04T00:36:57.895Z,12.53
2022-10-04T00:39:37.966Z,11.20
2022-10-04T00:42:31.002Z,10.10
2022-10-04T00:45:02.165Z,11.17
2022-10-04T00:47:36.674Z,10.20
2022-10-04T00:50:16.010Z,10.17
2022-10-04T00:52:48.891Z,10.70
2022-10-04T00:55:26.129Z,13.40
2022-10-04T00:58:00.437Z,10.87
2022-10-04T01:00:31.392Z,14.70
2022-10-04T01:03:06.909Z,10.97
2022-10-04T01:05:37.436Z,12.63
2022-10-04T01:08:09.605Z,10.77
2022-10-04T01:10:43.249Z,11.93
2022-10-04T01:13:15.349Z,12.20
2022-10-04T01:15:50.418Z,10.73
2022-10-04T01:18:30.914Z,13.50
2022-10-04T01:21:01.468Z,12.20
2022-10-04T01:23:36.025Z,15.60
2022-10-04T01:26:06.249Z,16.53
2022-10-04T01:28:35.304Z,16.23
2022-10-04T01:31:03.544Z,14.57
2022-10-04T01:33:31.642Z,15.57
2022-10-04T01:35:59.954Z,12.80
2022-10-04T01:38:27.997Z,13.47
2022-10-04T01:41:01.280Z,15.00
2022-10-04T01:43:36.567Z,14.17
2022-10-04T01:46:09.706Z,14.83
2022-10-04T01:48:42.070Z,14.27
2022-10-04T01:51:15.659Z,17.03
2022-10-04T01:53:51.167Z,14.33
2022-10-04T01:56:23.271Z,11.70
2022-10-04T01:58:55.227Z,14.50
2022-10-04T02:01:30.579Z,14.37
2022-10-04T02:04:04.435Z,12.40
2022-10-04T02:06:38.781Z,10.33
2022-10-04T02:09:10.689Z,10.37
2022-10-04T02:11:41.713Z,15.37
2022-10-04T02:14:16.445Z,13.33
2022-10-04T02:16:46.488Z,15.10
2022-10-04T02:19:16.161Z,14.50
2022-10-04T02:21:45.018Z,13.33
2022-10-04T02:24:13.724Z,14.60
2022-10-04T02:26:43.220Z,13.53
2022-10-04T02:29:11.328Z,13.60
2022-10-04T02:31:58.147Z,12.23
2022-10-04T02:34:26.302Z,15.17
2022-10-04T02:36:54.684Z,14.73
2022-10-04T02:39:26.000Z,12.07
2022-10-04T02:42:00.259Z,9.77
2022-10-04T02:44:31.666Z,12.03
2022-10-04T02:47:08.724Z,9.90
2022-10-04T02:49:40.011Z,8.53
2022-10-04T02:52:12.018Z,10.23
2022-10-04T02:54:46.184Z,9.80
2022-10-04T02:57:21.614Z,7.30
2022-10-04T02:59:49.736Z,8.37
2022-10-04T03:02:29.975Z,9.30
2022-10-04T03:05:02.393Z,7.70
2022-10-04T03:07:33.425Z,7.83
2022-10-04T03:10:02.185Z,10.80
2022-10-04T03:12:31.757Z,12.13
2022-10-04T03:14:59.910Z,9.30
2022-10-04T03:17:29.658Z,9.40
2022-10-04T03:19:58.631Z,8.93
2022-10-04T03:22:26.669Z,10.90
2022-10-04T03:24:57.187Z,10.40
2022-10-04T03:27:29.585Z,13.47
2022-10-04T03:30:00.201Z,10.37
2022-10-04T03:32:30.395Z,12.27
2022-10-04T03:35:00.191Z,11.83
2022-10-04T03:37:32.131Z,14.87
2022-10-04T03:40:01.317Z,11.03
2022-10-04T03:42:31.568Z,9.47
2022-10-04T03:45:06.251Z,11.23
2022-10-04T03:47:37.055Z,12.70
2022-10-04T03:50:14.737Z,10.10
2022-10-04T03:52:48.322Z,11.37
2022-10-04T03:55:18.456Z,10.90
2022-10-04T03:57:46.769Z,11.53
2022-10-04T04:00:19.691Z,11.67
2022-10-04T04:02:51.957Z,14.47
2022-10-04T04:05:25.011Z,15.93
2022-10-04T04:08:02.213Z,14.33
2022-10-04T04:10:33.848Z,16.47
2022-10-04T04:13:19.325Z,11.40
2022-10-04T04:15:49.003Z,13.00
2022-10-04T04:18:22.530Z,13.57
2022-10-04T04:20:52.632Z,16.17
2022-10-04T04:23:27.096Z,16.83
2022-10-04T04:26:00.784Z,16.17
2022-10-04T04:28:33.881Z,13.27
2022-10-04T04:31:07.632Z,15.90
2022-10-04T04:33:44.069Z,14.67
2022-10-04T04:36:15.348Z,11.53
2022-10-04T04:38:57.421Z,11.37
2022-10-04T04:41:27.878Z,11.60
2022-10-04T04:43:55.940Z,10.77
2022-10-04T04:46:27.865Z,10.30
2022-10-04T04:49:01.865Z,11.20
2022-10-04T04:51:32.312Z,9.27
2022-10-04T04:54:04.856Z,9.90
2022-10-04T04:56:33.833Z,10.47
2022-10-04T04:59:06.537Z,9.10
2022-10-04T05:01:38.254Z,11.83
2022-10-04T05:04:16.684Z,10.80
2022-10-04T05:06:46.862Z,11.80
2022-10-04T05:09:25.141Z,12.70
2022-10-04T05:11:57.569Z,12.30
2022-10-04T05:14:25.731Z,10.97
2022-10-04T05:16:56.356Z,15.27
2022-10-04T05:19:28.645Z,10.43
2022-10-04T05:21:59.225Z,13.83
2022-10-04T05:24:31.381Z,12.20
2022-10-04T05:27:02.593Z,13.73
2022-10-04T05:29:35.036Z,14.83
2022-10-04T05:32:16.893Z,12.17
2022-10-04T05:34:49.990Z,10.27
2022-10-04T05:37:42.751Z,10.47
2022-10-04T05:40:27.686Z,9.57
2022-10-04T05:42:58.218Z,11.70
2022-10-04T05:45:28.262Z,7.87
2022-10-04T05:47:59.217Z,6.40
2022-10-04T05:50:32.740Z,9.37
2022-10-04T05:53:19.617Z,11.67
2022-10-04T05:55:59.916Z,9.17
2022-10-04T05:58:50.150Z,10.83
2022-10-04T06:01:28.949Z,11.60
2022-10-04T06:04:16.546Z,10.17
2022-10-04T06:06:51.580Z,8.37
2022-10-04T06:09:36.734Z,9.30
2022-10-04T06:12:12.598Z,8.60
2022-10-04T06:15:09.121Z,9.00
2022-10-04T06:18:09.609Z,10.80
2022-10-04T06:21:06.549Z,9.27
2022-10-04T06:23:38.354Z,13.47
2022-10-04T06:26:11.445Z,8.23
2022-10-04T06:28:44.164Z,8.53
2022-10-04T06:31:32.718Z,8.10
2022-10-04T06:34:32.527Z,10.47
2022-10-04T06:37:15.503Z,9.50
2022-10-04T06:40:08.164Z,8.53
2022-10-04T06:42:55.443Z,9.80
2022-10-04T06:45:57.176Z,10.13
2022-10-04T06:49:15.130Z,9.40
2022-10-04T06:52:39.799Z,8.17
2022-10-04T06:55:32.039Z,8.47
2022-10-04T06:58:26.002Z,9.03
2022-10-04T07:00:59.558Z,8.67
2022-10-04T07:03:32.070Z,12.90
2022-10-04T07:06:04.980Z,9.80
2022-10-04T07:08:40.452Z,9.87
2022-10-04T07:11:19.542Z,10.97
2022-10-04T07:13:57.726Z,8.70
2022-10-04T07:16:35.543Z,8.17
2022-10-04T07:19:17.322Z,12.43
2022-10-04T07:21:52.652Z,9.90
2022-10-04T07:24:30.264Z,7.77
2022-10-04T07:26:58.727Z,8.20
2022-10-04T07:29:31.859Z,10.17
2022-10-04T07:32:13.785Z,12.30
2022-10-04T07:34:47.933Z,7.37
2022-10-04T07:37:17.214Z,7.23
2022-10-04T07:39:53.790Z,7.30
2022-10-04T07:42:28.476Z,9.63
2022-10-04T07:45:05.940Z,9.43
2022-10-04T07:47:34.198Z,7.53
2022-10-04T07:50:15.294Z,10.10
2022-10-04T07:52:57.640Z,8.77
2022-10-04T07:55:33.294Z,7.00
2022-10-04T07:58:15.641Z,7.10
2022-10-04T08:00:50.258Z,8.90
2022-10-04T08:03:51.912Z,7.47
2022-10-04T08:06:24.376Z,6.50
2022-10-04T08:09:38.431Z,9.83
2022-10-04T08:12:18.870Z,6.63
2022-10-04T08:15:12.061Z,6.77
2022-10-04T08:17:52.515Z,11.90
2022-10-04T08:20:33.199Z,7.30
2022-10-04T08:23:15.162Z,9.23
2022-10-04T08:25:50.338Z,7.93
2022-10-04T08:28:48.955Z,7.77
2022-10-04T08:31:32.243Z,6.97
2022-10-04T08:34:25.394Z,7.90
2022-10-04T08:37:10.126Z,8.00
2022-10-04T08:39:53.937Z,6.17
2022-10-04T08:42:48.566Z,6.13
2022-10-04T08:46:00.719Z,6.53
2022-10-04T08:49:02.823Z,7.10
2022-10-04T08:52:15.514Z,6.37
2022-10-04T08:55:08.291Z,6.60
2022-10-04T08:58:09.745Z,6.47
2022-10-04T09:01:01.549Z,6.83
2022-10-04T09:04:10.966Z,8.90
2022-10-04T09:06:53.772Z,7.17
2022-10-04T09:10:06.525Z,8.17
2022-10-04T09:12:50.897Z,5.43
2022-10-04T09:15:27.415Z,11.40
2022-10-04T09:18:03.655Z,5.73
2022-10-04T09:20:45.716Z,5.40
2022-10-04T09:23:25.253Z,8.73
2022-10-04T09:26:09.036Z,7.13
2022-10-04T09:29:14.556Z,7.10
2022-10-04T09:32:25.301Z,7.97
2022-10-04T09:35:14.573Z,7.03
2022-10-04T09:37:59.738Z,8.20
2022-10-04T09:40:53.992Z,5.93
2022-10-04T09:43:53.213Z,8.07
2022-10-04T09:46:57.448Z,8.10
2022-10-04T09:49:53.502Z,4.07
2022-10-04T09:52:39.952Z,5.37
2022-10-04T09:55:51.951Z,6.87
2022-10-04T09:58:48.977Z,6.73
2022-10-04T10:01:25.881Z,5.33
2022-10-04T10:04:17.938Z,7.00
2022-10-04T10:07:05.740Z,9.73
2022-10-04T10:10:00.452Z,6.30
2022-10-04T10:13:04.100Z,6.93
2022-10-04T10:15:42.210Z,5.07
2022-10-04T10:18:18.428Z,5.57
2022-10-04T10:21:07.491Z,6.43
2022-10-04T10:24:04.023Z,4.37
2022-10-04T10:26:51.013Z,5.97
2022-10-04T10:30:04.325Z,4.47
2022-10-04T10:32:49.817Z,7.63
2022-10-04T10:35:43.320Z,7.40
2022-10-04T10:38:45.769Z,5.77
2022-10-04T10:41:51.651Z,4.63
2022-10-04T10:44:33.280Z,4.53
2022-10-04T10:47:13.347Z,6.63
2022-10-04T10:49:54.828Z,4.03
2022-10-04T10:52:59.293Z,3.27
2022-10-04T10:55:34.360Z,7.47
2022-10-04T10:58:45.882Z,5.20
2022-10-04T11:01:48.066Z,3.40
2022-10-04T11:04:43.810Z,5.50
2022-10-04T11:07:34.960Z,5.90
2022-10-04T11:10:50.001Z,3.67
2022-10-04T11:13:54.337Z,4.60
2022-10-04T11:16:56.766Z,3.33
2022-10-04T11:20:04.667Z,3.00
2022-10-04T11:23:09.157Z,2.27
2022-10-04T11:26:04.068Z,3.33
2022-10-04T11:28:38.939Z,4.20
2022-10-04T11:31:46.918Z,4.30
2022-10-04T11:34:48.660Z,2.60
2022-10-04T11:37:22.897Z,3.20
2022-10-04T11:40:11.320Z,5.13
2022-10-04T11:42:56.993Z,5.67
2022-10-04T11:45:42.912Z,3.67
2022-10-04T11:48:26.501Z,4.77
2022-10-04T11:51:29.162Z,3.80
2022-10-04T11:54:28.595Z,3.70
2022-10-04T11:57:16.645Z,4.07
2022-10-04T11:59:57.421Z,4.57
2022-10-04T12:02:59.478Z,3.37
2022-10-04T12:06:03.918Z,2.53
2022-10-04T12:08:49.153Z,4.23
2022-10-04T12:12:03.981Z,3.33
2022-10-04T12:14:43.688Z,4.10
2022-10-04T12:17:49.113Z,4.63
2022-10-04T12:20:54.661Z,2.23
2022-10-04T12:23:45.038Z,3.80
2022-10-04T12:26:40.222Z,3.60
2022-10-04T12:29:27.641Z,3.37
2022-10-04T12:32:00.013Z,2.10
2022-10-04T12:34:36.313Z,4.40
2022-10-04T12:37:18.778Z,3.10
2022-10-04T12:40:16.092Z,2.60
2022-10-04T12:42:53.103Z,4.83
2022-10-04T12:45:32.946Z,2.47
2022-10-04T12:48:17.505Z,3.57
2022-10-04T12:50:55.112Z,4.43
2022-10-04T12:53:35.487Z,3.97
2022-10-04T12:56:13.162Z,3.53
2022-10-04T12:59:02.145Z,4.67
2022-10-04T13:01:40.829Z,4.77
2022-10-04T13:04:24.602Z,4.60
2022-10-04T13:07:11.131Z,4.83
2022-10-04T13:10:12.046Z,4.57
2022-10-04T13:13:05.101Z,5.97
2022-10-04T13:18:36.090Z,2.50
2022-10-04T13:21:06.660Z,2.60
2022-10-04T13:23:55.488Z,1.63
2022-10-04T13:26:31.938Z,2.80
2022-10-04T13:29:04.920Z,2.93
2022-10-04T13:31:39.993Z,2.50
2022-10-04T13:34:21.781Z,2.77
2022-10-04T13:37:04.026Z,3.40
2022-10-04T13:39:58.021Z,4.93
2022-10-04T13:42:53.128Z,4.83
2022-10-04T13:45:34.791Z,5.27
2022-10-04T13:48:44.400Z,4.27
2022-10-04T13:51:44.184Z,4.43
2022-10-04T13:54:41.749Z,3.63
2022-10-04T13:57:21.456Z,3.60
2022-10-04T14:00:00.706Z,3.13
2022-10-04T14:02:56.457Z,5.83
2022-10-04T14:05:59.729Z,5.70
2022-10-04T14:08:58.897Z,4.03
2022-10-04T14:12:05.182Z,4.23
2022-10-04T14:14:47.779Z,4.27
2022-10-04T14:17:53.020Z,3.23
2022-10-04T14:21:19.215Z,2.60
2022-10-04T14:24:17.927Z,3.27
2022-10-04T14:27:20.470Z,5.60
2022-10-04T14:30:06.194Z,2.70
2022-10-04T14:32:56.978Z,4.07
2022-10-04T14:35:28.761Z,2.50
2022-10-04T14:38:17.260Z,2.97
2022-10-04T14:41:03.486Z,2.00
2022-10-04T14:44:13.306Z,3.43
2022-10-04T14:46:52.609Z,3.00
2022-10-04T14:49:41.299Z,2.73
2022-10-04T14:52:24.802Z,4.23
2022-10-04T14:54:55.046Z,5.47
2022-10-04T14:57:44.410Z,4.83
2022-10-04T15:00:20.182Z,5.67
2022-10-04T15:03:16.143Z,6.97
2022-10-04T15:06:10.248Z,4.67
2022-10-04T15:09:17.682Z,4.20
2022-10-04T15:12:21.570Z,4.20
2022-10-04T15:15:05.514Z,5.07
2022-10-04T15:17:39.334Z,3.53
2022-10-04T15:20:20.622Z,5.00
2022-10-04T15:22:54.195Z,3.63
2022-10-04T15:25:41.502Z,5.43
2022-10-04T15:28:40.297Z,4.63
2022-10-04T15:31:17.142Z,2.70
2022-10-04T15:33:56.729Z,3.27
2022-10-04T15:36:39.596Z,5.53
2022-10-04T15:39:35.847Z,3.73
2022-10-04T15:42:12.765Z,4.77
2022-10-04T15:45:20.832Z,4.20
2022-10-04T15:48:11.481Z,4.13
2022-10-04T15:50:53.830Z,6.37
2022-10-04T15:53:55.708Z,5.00
2022-10-04T15:56:35.838Z,4.90
2022-10-04T15:59:39.385Z,7.00
2022-10-04T16:02:48.618Z,4.47
2022-10-04T16:05:26.916Z,14.00
2022-10-04T16:08:26.639Z,6.10
2022-10-04T16:11:10.791Z,5.13
2022-10-04T16:13:58.284Z,5.97
2022-10-04T16:17:21.147Z,6.53
2022-10-04T16:20:13.702Z,6.50
2022-10-04T16:23:21.845Z,5.33
2022-10-04T16:25:50.071Z,10.20
2022-10-04T16:28:28.277Z,9.07
2022-10-04T16:31:20.372Z,6.67
2022-10-04T16:33:58.325Z,8.50
2022-10-04T16:36:31.973Z,5.87
2022-10-04T16:39:20.394Z,7.73
2022-10-04T16:41:59.859Z,9.67
2022-10-04T16:44:37.589Z,7.47
2022-10-04T16:47:22.206Z,7.97
2022-10-04T16:49:57.083Z,8.87
2022-10-04T16:52:38.761Z,6.60
2022-10-04T16:55:35.355Z,5.10
2022-10-04T16:58:41.405Z,6.20
2022-10-04T17:01:46.325Z,9.13
2022-10-04T17:04:40.391Z,11.00
2022-10-04T17:07:23.218Z,7.70
2022-10-04T17:09:57.557Z,14.10
2022-10-04T17:12:36.932Z,9.90
2022-10-04T17:15:34.833Z,12.13
2022-10-04T17:18:14.731Z,11.00
2022-10-04T17:20:56.675Z,10.87
2022-10-04T17:23:51.243Z,10.43
2022-10-04T17:26:31.909Z,10.23
2022-10-04T17:29:08.087Z,9.63
2022-10-04T17:31:49.334Z,10.37
2022-10-04T17:34:27.310Z,12.07
2022-10-04T17:36:57.345Z,11.90
2022-10-04T17:39:44.460Z,11.57
2022-10-04T17:42:28.814Z,12.80
2022-10-04T17:45:43.499Z,13.97
2022-10-04T17:48:33.807Z,14.27
2022-10-04T17:51:23.097Z,13.73
2022-10-04T17:54:14.741Z,15.30
2022-10-04T17:56:47.147Z,11.10
2022-10-04T17:59:20.714Z,10.03
2022-10-04T18:02:00.552Z,12.23
2022-10-04T18:04:35.242Z,10.87
2022-10-04T18:07:10.835Z,12.37
2022-10-04T18:09:44.651Z,13.73
2022-10-04T18:12:24.461Z,11.53
2022-10-04T18:15:01.971Z,12.60
2022-10-04T18:17:38.978Z,12.53
2022-10-04T18:20:28.892Z,13.73
2022-10-04T18:23:02.710Z,14.33
2022-10-04T18:25:33.834Z,12.90
2022-10-04T18:28:06.723Z,11.83
2022-10-04T18:30:36.229Z,11.97
2022-10-04T18:33:16.302Z,14.13
2022-10-04T18:35:53.189Z,12.57
2022-10-04T18:38:24.825Z,15.00
2022-10-04T18:40:57.492Z,20.73
2022-10-04T18:43:30.658Z,21.60
2022-10-04T18:46:04.580Z,25.17
2022-10-04T18:48:52.826Z,19.97
2022-10-04T18:51:31.173Z,23.67
2022-10-04T18:54:25.224Z,22.90
2022-10-04T18:57:06.505Z,19.93
2022-10-04T18:59:58.393Z,18.40
2022-10-04T19:02:35.359Z,20.87
2022-10-04T19:05:15.455Z,18.93
2022-10-04T19:07:50.641Z,21.67
2022-10-04T19:10:27.008Z,24.50
2022-10-04T19:13:17.787Z,25.23
2022-10-04T19:16:05.718Z,25.23
2022-10-04T19:18:55.625Z,22.27
2022-10-04T19:21:31.569Z,19.73
2022-10-04T19:24:26.708Z,22.90
2022-10-04T19:27:01.194Z,22.20
2022-10-04T19:29:44.687Z,22.63
2022-10-04T19:32:23.459Z,21.97
2022-10-04T19:35:06.546Z,21.53
2022-10-04T19:37:42.008Z,21.60
2022-10-04T19:40:20.732Z,23.03
2022-10-04T19:42:58.672Z,21.10
2022-10-04T19:45:34.024Z,22.17
2022-10-04T19:48:07.109Z,23.80
2022-10-04T19:50:40.851Z,23.23
2022-10-04T19:53:19.685Z,22.93
2022-10-04T19:55:56.073Z,22.93
2022-10-04T19:58:31.929Z,22.10
2022-10-04T20:01:00.174Z,24.33
2022-10-04T20:03:28.685Z,29.37
2022-10-04T20:05:57.411Z,26.13
2022-10-04T20:08:56.765Z,25.17
2022-10-04T20:11:48.653Z,26.10
2022-10-04T20:14:44.964Z,25.57
2022-10-04T20:17:31.524Z,27.37
2022-10-04T20:20:03.535Z,23.67
2022-10-04T20:22:47.057Z,24.90
2022-10-04T20:25:54.889Z,28.13
2022-10-04T20:28:41.761Z,24.67
2022-10-04T20:31:11.961Z,25.53
2022-10-04T20:33:48.229Z,28.50
2022-10-04T20:36:53.252Z,28.77
2022-10-04T20:40:00.287Z,25.40
2022-10-04T20:42:35.627Z,27.77
2022-10-04T20:45:22.308Z,26.10
2022-10-04T20:47:52.147Z,28.97
2022-10-04T20:50:31.252Z,33.63
2022-10-04T20:53:02.000Z,35.23
2022-10-04T20:55:32.204Z,34.63
2022-10-04T20:58:03.426Z,38.27
2022-10-04T21:00:37.497Z,32.57
2022-10-04T21:03:16.761Z,37.37
2022-10-04T21:05:47.768Z,33.13
2022-10-04T21:08:24.231Z,30.43
2022-10-04T21:11:09.368Z,29.30
2022-10-04T21:13:43.549Z,29.53
2022-10-04T21:16:32.196Z,30.47
2022-10-04T21:19:45.124Z,31.33
2022-10-04T21:22:40.651Z,29.10
2022-10-04T21:25:41.621Z,31.27
2022-10-04T21:28:39.861Z,30.97
2022-10-04T21:31:09.313Z,26.73
2022-10-04T21:33:38.129Z,27.80
2022-10-04T21:36:07.342Z,27.50
2022-10-04T21:38:35.498Z,28.90
2022-10-04T21:41:04.258Z,29.13
2022-10-04T21:43:32.354Z,27.80
2022-10-04T21:46:00.753Z,28.77
2022-10-04T21:48:30.235Z,31.80
2022-10-04T21:50:58.308Z,29.10
2022-10-04T21:53:26.384Z,29.57
2022-10-04T21:55:54.431Z,31.43
2022-10-04T21:58:22.496Z,28.20
2022-10-04T22:00:50.855Z,28.40
2022-10-04T22:03:18.914Z,23.27
2022-10-04T22:05:49.413Z,28.73
2022-10-04T22:08:17.413Z,26.27
2022-10-04T22:10:48.729Z,28.90
2022-10-04T22:13:17.006Z,28.37
2022-10-04T22:15:45.024Z,27.20
2022-10-04T22:18:13.061Z,28.40
2022-10-04T22:20:41.223Z,26.70
2022-10-04T22:23:17.724Z,24.47
2022-10-04T22:25:46.059Z,23.60
2022-10-04T22:28:23.405Z,25.40
2022-10-04T22:30:52.227Z,26.00
2022-10-04T22:33:29.897Z,21.50
2022-10-04T22:36:00.100Z,23.37
2022-10-04T22:38:29.472Z,24.90
2022-10-04T22:40:58.008Z,23.20
2022-10-04T22:43:28.141Z,24.73
2022-10-04T22:45:58.187Z,23.57
2022-10-04T22:48:28.891Z,30.20
2022-10-04T22:50:57.018Z,26.40
2022-10-04T22:53:25.432Z,25.20
2022-10-04T22:55:56.166Z,23.87
2022-10-04T22:58:24.146Z,25.47
2022-10-04T23:00:53.692Z,26.27
2022-10-04T23:03:28.963Z,25.33
2022-10-04T23:05:57.054Z,27.37
2022-10-04T23:08:25.105Z,26.67
2022-10-04T23:10:56.791Z,30.20
2022-10-04T23:13:26.117Z,29.20
2022-10-04T23:15:58.534Z,31.77
2022-10-04T23:18:27.585Z,28.60
2022-10-04T23:21:00.533Z,26.33
2022-10-04T23:23:32.418Z,27.37
2022-10-04T23:26:01.845Z,25.40
2022-10-04T23:28:30.556Z,24.97
2022-10-04T23:31:05.920Z,23.90
2022-10-04T23:33:33.969Z,27.83
2022-10-04T23:36:03.134Z,29.37
2022-10-04T23:38:33.228Z,28.27
2022-10-04T23:41:02.992Z,29.53
2022-10-04T23:43:31.938Z,31.23
2022-10-04T23:46:00.177Z,28.90
2022-10-04T23:48:31.927Z,28.00
2022-10-04T23:51:00.966Z,26.00
2022-10-04T23:53:31.812Z,25.07
2022-10-04T23:56:04.233Z,25.93
2022-10-04T23:58:37.383Z,23.97
